createdAt,value
2017-10-10T00:01:02.373Z,0
2017-10-10T00:02:12.373Z,0
2017-10-10T00:03:22.706Z,0
2017-10-10T00:04:32.704Z,0
2017-10-10T00:05:42.370Z,0
2017-10-10T00:06:52.029Z,0
2017-10-10T00:08:02.364Z,0
2017-10-10T00:09:12.693Z,0
2017-10-10T00:10:23.032Z,0
2017-10-10T00:11:35.340Z,0
2017-10-10T00:12:45.012Z,0
2017-10-10T00:13:55.355Z,0
2017-10-10T00:15:05.695Z,0
2017-10-10T00:16:15.723Z,0
2017-10-10T00:17:26.060Z,0
2017-10-10T00:18:36.053Z,0
2017-10-10T00:19:46.380Z,0
2017-10-10T00:20:56.375Z,0
2017-10-10T00:22:06.370Z,0
2017-10-10T00:23:16.032Z,0
2017-10-10T00:24:26.024Z,0
2017-10-10T00:25:35.685Z,0
2017-10-10T00:26:45.683Z,0
2017-10-10T00:27:55.007Z,0
2017-10-10T00:29:09.008Z,0
2017-10-10T00:30:19.341Z,0
2017-10-10T00:31:29.353Z,0
2017-10-10T00:32:39.016Z,0
2017-10-10T00:33:49.037Z,0
2017-10-10T00:34:59.042Z,0
2017-10-10T00:36:08.378Z,0
2017-10-10T00:37:18.370Z,0
2017-10-10T00:38:28.029Z,0
2017-10-10T00:39:38.377Z,0
2017-10-10T00:40:48.044Z,0
2017-10-10T00:41:58.057Z,0
2017-10-10T00:43:08.058Z,0
2017-10-10T00:44:18.393Z,0
2017-10-10T00:45:28.053Z,0
2017-10-10T00:46:38.379Z,0
2017-10-10T00:47:48.712Z,0
2017-10-10T00:48:58.713Z,0
2017-10-10T00:50:08.383Z,0
2017-10-10T00:51:18.380Z,0
2017-10-10T00:52:28.371Z,0
2017-10-10T00:53:38.707Z,0
2017-10-10T00:54:49.040Z,0
2017-10-10T00:55:59.370Z,0
2017-10-10T00:57:09.702Z,0
2017-10-10T00:58:19.704Z,0
2017-10-10T00:59:30.060Z,0
2017-10-10T01:00:40.425Z,0
2017-10-10T01:01:50.422Z,0
2017-10-10T01:03:00.434Z,0
2017-10-10T01:04:10.093Z,0
2017-10-10T01:05:20.084Z,0
2017-10-10T01:06:30.414Z,0
2017-10-10T01:07:40.454Z,0
2017-10-10T01:08:50.784Z,0
2017-10-10T01:10:00.444Z,0
2017-10-10T01:11:10.115Z,0
2017-10-10T01:12:20.437Z,0
2017-10-10T01:13:30.786Z,0
2017-10-10T01:14:40.452Z,0
2017-10-10T01:15:50.456Z,0
2017-10-10T01:17:00.795Z,0
2017-10-10T01:18:11.136Z,0
2017-10-10T01:19:21.465Z,0
2017-10-10T01:20:31.793Z,0
2017-10-10T01:21:41.790Z,0
2017-10-10T01:22:51.781Z,0
2017-10-10T01:24:01.784Z,0
2017-10-10T01:25:12.154Z,0
2017-10-10T01:26:22.488Z,0
2017-10-10T01:27:32.485Z,0
2017-10-10T01:28:42.485Z,0
2017-10-10T01:29:52.509Z,0
2017-10-10T01:31:02.848Z,0
2017-10-10T01:32:12.845Z,0
2017-10-10T01:33:23.181Z,0
2017-10-10T01:34:33.187Z,0
2017-10-10T01:35:43.511Z,0
2017-10-10T01:36:53.517Z,0
2017-10-10T01:38:03.181Z,0
2017-10-10T01:39:13.516Z,0
2017-10-10T01:40:23.185Z,0
2017-10-10T01:41:32.507Z,0
2017-10-10T01:42:42.167Z,0
2017-10-10T01:43:52.501Z,0
2017-10-10T01:45:02.845Z,0
2017-10-10T01:46:12.844Z,0
2017-10-10T01:47:22.839Z,0
2017-10-10T01:48:32.834Z,0
2017-10-10T01:49:43.164Z,0
2017-10-10T01:50:52.830Z,0
2017-10-10T01:52:03.165Z,0
2017-10-10T01:53:13.500Z,0
2017-10-10T01:54:23.494Z,0
2017-10-10T01:55:33.822Z,0
2017-10-10T01:56:44.157Z,0
2017-10-10T01:57:53.821Z,0
2017-10-10T01:59:04.152Z,0
2017-10-10T02:00:13.813Z,0
2017-10-10T02:01:23.809Z,0
2017-10-10T02:02:33.473Z,0
2017-10-10T02:03:43.460Z,0
2017-10-10T02:04:53.783Z,0
2017-10-10T02:06:03.445Z,0
2017-10-10T02:07:13.462Z,0
2017-10-10T02:08:23.945Z,0
2017-10-10T02:09:33.627Z,0
2017-10-10T02:10:43.967Z,0
2017-10-10T02:11:53.964Z,0
2017-10-10T02:13:03.629Z,0
2017-10-10T02:14:13.959Z,0
2017-10-10T02:15:23.627Z,0
2017-10-10T02:16:33.634Z,0
2017-10-10T02:17:43.970Z,0
2017-10-10T02:18:54.311Z,0
2017-10-10T02:20:04.649Z,0
2017-10-10T02:21:14.982Z,0
2017-10-10T02:22:25.308Z,0
2017-10-10T02:23:35.634Z,0
2017-10-10T02:24:46.017Z,0
2017-10-10T02:25:56.071Z,0
2017-10-10T02:27:06.066Z,0
2017-10-10T02:28:16.395Z,0
2017-10-10T02:29:26.730Z,0
2017-10-10T02:30:36.729Z,0
2017-10-10T02:31:47.057Z,0
2017-10-10T02:32:57.067Z,0
2017-10-10T02:34:07.410Z,0
2017-10-10T02:35:17.758Z,0
2017-10-10T02:36:28.090Z,0
2017-10-10T02:37:38.080Z,0
2017-10-10T02:38:47.741Z,0
2017-10-10T02:39:58.074Z,0
2017-10-10T02:41:08.077Z,0
2017-10-10T02:42:18.401Z,0
2017-10-10T02:43:28.741Z,0
2017-10-10T02:44:39.075Z,0
2017-10-10T02:45:49.409Z,0
2017-10-10T02:46:59.741Z,0
2017-10-10T02:48:10.085Z,0
2017-10-10T02:49:20.416Z,0
2017-10-10T02:50:30.769Z,0
2017-10-10T02:51:41.102Z,0
2017-10-10T02:52:51.100Z,0
2017-10-10T02:54:01.438Z,0
2017-10-10T02:55:11.785Z,0
2017-10-10T02:56:21.455Z,0
2017-10-10T02:57:31.455Z,0
2017-10-10T02:58:41.457Z,0
2017-10-10T02:59:51.824Z,0
2017-10-10T03:01:01.820Z,0
2017-10-10T03:02:11.819Z,0
2017-10-10T03:03:22.149Z,0
2017-10-10T03:04:32.149Z,0
2017-10-10T03:05:42.144Z,0
2017-10-10T03:06:52.475Z,0
2017-10-10T03:08:02.812Z,0
2017-10-10T03:09:13.148Z,0
2017-10-10T03:10:22.805Z,0
2017-10-10T03:11:33.133Z,0
2017-10-10T03:12:43.485Z,0
2017-10-10T03:13:53.812Z,0
2017-10-10T03:15:03.478Z,0
2017-10-10T03:16:13.474Z,0
2017-10-10T03:17:23.817Z,0
2017-10-10T03:18:33.529Z,0
2017-10-10T03:19:43.195Z,0
2017-10-10T03:20:53.533Z,0
2017-10-10T03:22:03.865Z,0
2017-10-10T03:23:14.200Z,0
2017-10-10T03:24:24.533Z,0
2017-10-10T03:25:34.863Z,0
2017-10-10T03:26:44.861Z,0
2017-10-10T03:27:54.184Z,0
2017-10-10T03:29:04.511Z,0
2017-10-10T03:30:14.519Z,0
2017-10-10T03:31:24.517Z,0
2017-10-10T03:32:34.514Z,0
2017-10-10T03:33:44.208Z,0
2017-10-10T03:34:54.540Z,0
2017-10-10T03:36:04.247Z,0
2017-10-10T03:37:14.239Z,0
2017-10-10T03:38:24.234Z,0
2017-10-10T03:39:34.566Z,0
2017-10-10T03:40:44.894Z,0
2017-10-10T03:41:54.897Z,0
2017-10-10T03:43:05.242Z,0
2017-10-10T03:44:15.571Z,0
2017-10-10T03:45:25.238Z,0
2017-10-10T03:46:35.568Z,0
2017-10-10T03:47:45.565Z,0
2017-10-10T03:48:55.891Z,0
2017-10-10T03:50:05.555Z,0
2017-10-10T03:51:15.555Z,0
2017-10-10T03:52:25.882Z,0
2017-10-10T03:53:36.217Z,0
2017-10-10T03:54:46.565Z,0
2017-10-10T03:55:56.907Z,0
2017-10-10T03:57:07.234Z,0
2017-10-10T03:58:17.563Z,0
2017-10-10T03:59:27.220Z,0
2017-10-10T04:00:37.214Z,0
2017-10-10T04:01:46.876Z,0
2017-10-10T04:02:57.229Z,0
2017-10-10T04:04:07.565Z,0
2017-10-10T04:05:17.898Z,0
2017-10-10T04:06:28.233Z,0
2017-10-10T04:07:38.577Z,0
2017-10-10T04:08:48.909Z,0
2017-10-10T04:09:58.907Z,0
2017-10-10T04:11:08.232Z,0
2017-10-10T04:12:18.230Z,0
2017-10-10T04:13:28.223Z,0
2017-10-10T04:14:38.566Z,0
2017-10-10T04:15:48.900Z,0
2017-10-10T04:16:58.889Z,0
2017-10-10T04:18:09.252Z,0
2017-10-10T04:19:19.581Z,0
2017-10-10T04:20:29.576Z,0
2017-10-10T04:21:39.240Z,0
2017-10-10T04:22:49.574Z,0
2017-10-10T04:23:59.901Z,0
2017-10-10T04:25:10.243Z,0
2017-10-10T04:26:20.580Z,0
2017-10-10T04:27:30.577Z,0
2017-10-10T04:28:40.569Z,0
2017-10-10T04:29:50.927Z,0
2017-10-10T04:31:00.930Z,0
2017-10-10T04:32:10.593Z,0
2017-10-10T04:33:20.592Z,0
2017-10-10T04:34:30.594Z,0
2017-10-10T04:35:40.956Z,0
2017-10-10T04:36:51.291Z,0
2017-10-10T04:38:01.285Z,0
2017-10-10T04:39:11.283Z,0
2017-10-10T04:40:21.609Z,0
2017-10-10T04:41:31.619Z,0
2017-10-10T04:42:40.946Z,0
2017-10-10T04:43:51.278Z,0
2017-10-10T04:45:01.610Z,0
2017-10-10T04:46:11.943Z,0
2017-10-10T04:47:22.277Z,0
2017-10-10T04:48:31.971Z,0
2017-10-10T04:49:41.991Z,0
2017-10-10T04:50:51.988Z,0
2017-10-10T04:52:01.987Z,0
2017-10-10T04:53:11.997Z,0
2017-10-10T04:54:22.332Z,0
2017-10-10T04:55:32.328Z,0
2017-10-10T04:56:42.657Z,0
2017-10-10T04:57:52.980Z,0
2017-10-10T04:59:02.648Z,0
2017-10-10T05:00:12.638Z,0
2017-10-10T05:01:22.640Z,0
2017-10-10T05:02:32.981Z,0
2017-10-10T05:03:42.975Z,0
2017-10-10T05:04:53.307Z,0
2017-10-10T05:06:03.641Z,0
2017-10-10T05:07:13.641Z,0
2017-10-10T05:08:23.639Z,0
2017-10-10T05:09:33.638Z,0
2017-10-10T05:10:43.632Z,0
2017-10-10T05:11:53.641Z,0
2017-10-10T05:13:03.983Z,0
2017-10-10T05:14:13.988Z,0
2017-10-10T05:15:23.749Z,0
2017-10-10T05:16:33.416Z,0
2017-10-10T05:17:43.757Z,0
2017-10-10T05:18:53.764Z,0
2017-10-10T05:20:03.435Z,0
2017-10-10T05:21:13.789Z,0
2017-10-10T05:22:23.794Z,0
2017-10-10T05:23:33.798Z,0
2017-10-10T05:24:43.795Z,0
2017-10-10T05:25:53.791Z,0
2017-10-10T05:27:04.125Z,0
2017-10-10T05:28:14.128Z,0
2017-10-10T05:29:24.146Z,0
2017-10-10T05:30:34.144Z,0
2017-10-10T05:31:44.144Z,0
2017-10-10T05:32:54.478Z,0
2017-10-10T05:34:04.500Z,0
2017-10-10T05:35:14.847Z,0
2017-10-10T05:36:24.845Z,0
2017-10-10T05:37:34.868Z,0
2017-10-10T05:38:45.203Z,0
2017-10-10T05:39:55.535Z,0
2017-10-10T05:41:05.206Z,0
2017-10-10T05:42:15.575Z,5
2017-10-10T05:43:25.241Z,5
2017-10-10T05:44:35.873Z,5
2017-10-10T05:45:45.545Z,5
2017-10-10T05:46:55.539Z,5
2017-10-10T05:48:05.544Z,5
2017-10-10T05:49:15.545Z,5
2017-10-10T05:50:25.872Z,5
2017-10-10T05:51:35.534Z,5
2017-10-10T05:52:45.865Z,5
2017-10-10T05:53:55.876Z,10
2017-10-10T05:55:05.886Z,10
2017-10-10T05:56:15.558Z,10
2017-10-10T05:57:25.888Z,10
2017-10-10T05:58:35.891Z,10
2017-10-10T05:59:46.221Z,10
2017-10-10T06:00:56.554Z,10
2017-10-10T06:02:06.226Z,15
2017-10-10T06:03:16.229Z,15
2017-10-10T06:04:26.239Z,15
2017-10-10T06:05:36.568Z,15
2017-10-10T06:06:46.566Z,15
2017-10-10T06:07:56.908Z,15
2017-10-10T06:09:06.913Z,20
2017-10-10T06:10:17.248Z,20
2017-10-10T06:11:26.920Z,20
2017-10-10T06:12:36.587Z,25
2017-10-10T06:13:46.612Z,25
2017-10-10T06:14:56.950Z,25
2017-10-10T06:16:06.614Z,30
2017-10-10T06:17:16.611Z,30
2017-10-10T06:18:26.621Z,30
2017-10-10T06:19:36.629Z,30
2017-10-10T06:20:46.631Z,30
2017-10-10T06:21:56.638Z,35
2017-10-10T06:23:06.982Z,35
2017-10-10T06:24:16.644Z,35
2017-10-10T06:25:26.729Z,40
2017-10-10T06:26:37.066Z,40
2017-10-10T06:27:47.069Z,40
2017-10-10T06:28:57.070Z,45
2017-10-10T06:30:06.916Z,45
2017-10-10T06:31:17.257Z,50
2017-10-10T06:32:27.280Z,50
2017-10-10T06:33:37.278Z,55
2017-10-10T06:34:47.267Z,55
2017-10-10T06:35:57.255Z,55
2017-10-10T06:37:07.558Z,60
2017-10-10T06:38:17.885Z,60
2017-10-10T06:39:28.207Z,65
2017-10-10T06:40:38.527Z,65
2017-10-10T06:41:48.849Z,65
2017-10-10T06:42:58.508Z,65
2017-10-10T06:44:08.165Z,70
2017-10-10T06:45:18.501Z,70
2017-10-10T06:46:28.833Z,70
2017-10-10T06:47:39.160Z,75
2017-10-10T06:48:49.489Z,75
2017-10-10T06:49:59.144Z,80
2017-10-10T06:51:09.140Z,80
2017-10-10T06:52:19.463Z,80
2017-10-10T06:53:29.121Z,85
2017-10-10T06:54:39.114Z,85
2017-10-10T06:55:49.109Z,90
2017-10-10T06:56:58.431Z,90
2017-10-10T06:58:08.756Z,95
2017-10-10T06:59:18.769Z,95
2017-10-10T07:00:28.420Z,100
2017-10-10T07:01:38.412Z,100
2017-10-10T07:02:48.737Z,105
2017-10-10T07:03:58.726Z,105
2017-10-10T07:05:08.727Z,110
2017-10-10T07:06:18.721Z,110
2017-10-10T07:07:29.057Z,115
2017-10-10T07:08:39.052Z,115
2017-10-10T07:09:49.378Z,120
2017-10-10T07:10:59.054Z,120
2017-10-10T07:12:09.044Z,120
2017-10-10T07:13:19.045Z,120
2017-10-10T07:14:28.710Z,120
2017-10-10T07:15:38.404Z,120
2017-10-10T07:16:48.725Z,120
2017-10-10T07:17:59.061Z,115
2017-10-10T07:19:09.050Z,115
2017-10-10T07:20:19.039Z,115
2017-10-10T07:21:29.469Z,115
2017-10-10T07:22:39.461Z,115
2017-10-10T07:23:49.799Z,115
2017-10-10T07:24:59.789Z,115
2017-10-10T07:26:10.116Z,115
2017-10-10T07:27:20.108Z,115
2017-10-10T07:28:30.432Z,115
2017-10-10T07:29:40.094Z,120
2017-10-10T07:30:50.084Z,125
2017-10-10T07:31:59.752Z,125
2017-10-10T07:33:10.086Z,125
2017-10-10T07:34:19.743Z,125
2017-10-10T07:35:30.066Z,125
2017-10-10T07:36:40.395Z,130
2017-10-10T07:37:50.731Z,135
2017-10-10T07:39:00.721Z,140
2017-10-10T07:40:10.719Z,140
2017-10-10T07:41:20.719Z,140
2017-10-10T07:42:31.053Z,140
2017-10-10T07:43:40.375Z,140
2017-10-10T07:44:50.702Z,140
2017-10-10T07:46:00.709Z,145
2017-10-10T07:47:10.703Z,150
2017-10-10T07:48:21.044Z,150
2017-10-10T07:49:31.371Z,155
2017-10-10T07:50:41.360Z,155
2017-10-10T07:51:51.357Z,160
2017-10-10T07:53:01.350Z,155
2017-10-10T07:54:11.016Z,155
2017-10-10T07:55:21.340Z,155
2017-10-10T07:56:31.664Z,155
2017-10-10T07:57:41.993Z,155
2017-10-10T07:58:51.985Z,155
2017-10-10T08:00:02.322Z,155
2017-10-10T08:01:12.657Z,155
2017-10-10T08:02:22.681Z,160
2017-10-10T08:03:33.019Z,160
2017-10-10T08:04:43.022Z,155
2017-10-10T08:05:53.352Z,155
2017-10-10T08:07:03.679Z,155
2017-10-10T08:08:13.336Z,155
2017-10-10T08:09:23.665Z,160
2017-10-10T08:10:35.760Z,165
2017-10-10T08:11:46.087Z,160
2017-10-10T08:12:56.412Z,160
2017-10-10T08:14:06.406Z,160
2017-10-10T08:15:16.406Z,165
2017-10-10T08:16:26.730Z,170
2017-10-10T08:17:37.059Z,175
2017-10-10T08:18:47.390Z,175
2017-10-10T08:19:57.052Z,180
2017-10-10T08:21:07.381Z,180
2017-10-10T08:22:17.376Z,180
2017-10-10T08:23:27.036Z,185
2017-10-10T08:24:37.364Z,185
2017-10-10T08:25:47.688Z,190
2017-10-10T08:26:58.013Z,190
2017-10-10T08:28:07.672Z,195
2017-10-10T08:29:17.679Z,195
2017-10-10T08:30:28.008Z,195
2017-10-10T08:31:38.010Z,200
2017-10-10T08:32:48.009Z,200
2017-10-10T08:33:58.012Z,200
2017-10-10T08:35:07.678Z,205
2017-10-10T08:36:18.012Z,205
2017-10-10T08:37:28.344Z,210
2017-10-10T08:38:38.670Z,210
2017-10-10T08:39:48.667Z,215
2017-10-10T08:40:58.995Z,215
2017-10-10T08:42:09.003Z,215
2017-10-10T08:43:18.993Z,220
2017-10-10T08:44:28.991Z,220
2017-10-10T08:45:38.992Z,220
2017-10-10T08:46:49.324Z,220
2017-10-10T08:47:59.681Z,220
2017-10-10T08:49:09.672Z,210
2017-10-10T08:50:19.999Z,200
2017-10-10T08:51:29.667Z,190
2017-10-10T08:52:40.008Z,185
2017-10-10T08:53:50.346Z,190
2017-10-10T08:55:00.681Z,205
2017-10-10T08:56:10.682Z,220
2017-10-10T08:57:20.676Z,230
2017-10-10T08:58:30.678Z,230
2017-10-10T08:59:40.674Z,230
2017-10-10T09:00:51.000Z,225
2017-10-10T09:02:00.994Z,225
2017-10-10T09:03:11.319Z,225
2017-10-10T09:04:21.645Z,225
2017-10-10T09:05:31.971Z,225
2017-10-10T09:06:42.296Z,220
2017-10-10T09:07:52.623Z,220
2017-10-10T09:09:02.617Z,230
2017-10-10T09:10:12.293Z,235
2017-10-10T09:11:22.635Z,245
2017-10-10T09:12:32.634Z,250
2017-10-10T09:13:42.633Z,260
2017-10-10T09:14:54.960Z,265
2017-10-10T09:16:05.291Z,265
2017-10-10T09:17:15.613Z,265
2017-10-10T09:18:25.956Z,270
2017-10-10T09:19:35.955Z,270
2017-10-10T09:20:46.282Z,270
2017-10-10T09:21:56.272Z,265
2017-10-10T09:23:06.269Z,265
2017-10-10T09:24:16.269Z,260
2017-10-10T09:25:26.604Z,260
2017-10-10T09:26:36.596Z,265
2017-10-10T09:27:46.254Z,265
2017-10-10T09:28:56.246Z,265
2017-10-10T09:30:05.239Z,265
2017-10-10T09:31:14.900Z,265
2017-10-10T09:32:25.238Z,265
2017-10-10T09:33:34.896Z,265
2017-10-10T09:34:44.888Z,265
2017-10-10T09:35:55.216Z,260
2017-10-10T09:37:05.210Z,260
2017-10-10T09:38:14.879Z,260
2017-10-10T09:39:24.542Z,265
2017-10-10T09:40:34.536Z,275
2017-10-10T09:41:44.863Z,280
2017-10-10T09:42:55.203Z,285
2017-10-10T09:44:07.539Z,290
2017-10-10T09:45:17.867Z,290
2017-10-10T09:46:28.194Z,290
2017-10-10T09:47:38.522Z,290
2017-10-10T09:48:48.846Z,290
2017-10-10T09:49:59.176Z,290
2017-10-10T09:51:09.172Z,295
2017-10-10T09:52:19.504Z,300
2017-10-10T09:53:29.837Z,305
2017-10-10T09:54:39.501Z,305
2017-10-10T09:55:49.495Z,310
2017-10-10T09:56:59.824Z,305
2017-10-10T09:58:10.178Z,305
2017-10-10T09:59:20.506Z,305
2017-10-10T10:00:30.878Z,310
2017-10-10T10:01:40.540Z,320
2017-10-10T10:02:50.881Z,330
2017-10-10T10:04:01.214Z,335
2017-10-10T10:05:11.552Z,340
2017-10-10T10:06:21.883Z,355
2017-10-10T10:07:32.214Z,360
2017-10-10T10:08:42.547Z,360
2017-10-10T10:09:52.209Z,360
2017-10-10T10:11:02.537Z,360
2017-10-10T10:12:12.200Z,370
2017-10-10T10:13:22.639Z,380
2017-10-10T10:14:32.633Z,380
2017-10-10T10:15:42.959Z,370
2017-10-10T10:16:52.961Z,360
2017-10-10T10:18:02.640Z,350
2017-10-10T10:19:12.638Z,340
2017-10-10T10:20:22.309Z,335
2017-10-10T10:21:31.968Z,330
2017-10-10T10:22:42.299Z,315
2017-10-10T10:23:52.299Z,310
2017-10-10T10:25:02.628Z,290
2017-10-10T10:26:12.965Z,275
2017-10-10T10:27:22.965Z,280
2017-10-10T10:28:32.291Z,285
2017-10-10T10:29:41.958Z,280
2017-10-10T10:30:52.294Z,280
2017-10-10T10:32:02.292Z,285
2017-10-10T10:33:12.295Z,295
2017-10-10T10:34:22.298Z,300
2017-10-10T10:35:32.625Z,315
2017-10-10T10:36:42.952Z,305
2017-10-10T10:37:53.288Z,295
2017-10-10T10:39:03.280Z,290
2017-10-10T10:40:13.278Z,295
2017-10-10T10:41:23.613Z,305
2017-10-10T10:42:33.612Z,315
2017-10-10T10:43:43.615Z,310
2017-10-10T10:44:53.618Z,305
2017-10-10T10:46:03.616Z,300
2017-10-10T10:47:13.275Z,295
2017-10-10T10:48:22.943Z,295
2017-10-10T10:49:32.606Z,315
2017-10-10T10:50:42.607Z,335
2017-10-10T10:51:52.602Z,340
2017-10-10T10:53:02.936Z,335
2017-10-10T10:54:12.962Z,330
2017-10-10T10:55:23.292Z,320
2017-10-10T10:56:32.961Z,305
2017-10-10T10:57:42.966Z,300
2017-10-10T10:58:52.633Z,290
2017-10-10T11:00:02.626Z,275
2017-10-10T11:01:12.288Z,270
2017-10-10T11:02:22.624Z,260
2017-10-10T11:03:32.624Z,270
2017-10-10T11:04:42.961Z,275
2017-10-10T11:05:53.288Z,275
2017-10-10T11:07:03.618Z,270
2017-10-10T11:08:13.955Z,275
2017-10-10T11:09:23.616Z,275
2017-10-10T11:10:33.618Z,280
2017-10-10T11:11:43.618Z,290
2017-10-10T11:12:53.284Z,300
2017-10-10T11:14:03.626Z,300
2017-10-10T11:15:13.962Z,290
2017-10-10T11:16:23.956Z,290
2017-10-10T11:17:33.629Z,285
2017-10-10T11:18:43.289Z,285
2017-10-10T11:19:53.622Z,290
2017-10-10T11:21:03.951Z,300
2017-10-10T11:22:13.964Z,305
2017-10-10T11:23:23.968Z,300
2017-10-10T11:24:34.315Z,285
2017-10-10T11:25:44.647Z,275
2017-10-10T11:26:54.975Z,280
2017-10-10T11:28:04.969Z,280
2017-10-10T11:29:14.296Z,280
2017-10-10T11:30:24.626Z,280
2017-10-10T11:31:34.966Z,285
2017-10-10T11:32:45.296Z,275
2017-10-10T11:33:55.625Z,275
2017-10-10T11:35:05.969Z,280
2017-10-10T11:36:15.976Z,285
2017-10-10T11:37:25.971Z,290
2017-10-10T11:38:35.634Z,285
2017-10-10T11:39:45.631Z,295
2017-10-10T11:40:55.973Z,315
2017-10-10T11:42:05.964Z,325
2017-10-10T11:43:15.966Z,340
2017-10-10T11:44:25.966Z,355
2017-10-10T11:45:35.632Z,375
2017-10-10T11:46:45.628Z,390
2017-10-10T11:47:55.633Z,380
2017-10-10T11:49:05.961Z,400
2017-10-10T11:50:16.293Z,440
2017-10-10T11:51:26.641Z,425
2017-10-10T11:52:36.302Z,400
2017-10-10T11:53:45.628Z,390
2017-10-10T11:54:55.957Z,385
2017-10-10T11:56:06.288Z,380
2017-10-10T11:57:16.621Z,385
2017-10-10T11:58:26.657Z,380
2017-10-10T11:59:36.983Z,385
2017-10-10T12:00:46.311Z,415
2017-10-10T12:01:56.657Z,375
2017-10-10T12:03:06.651Z,345
2017-10-10T12:04:16.647Z,335
2017-10-10T12:05:26.643Z,335
2017-10-10T12:06:36.320Z,330
2017-10-10T12:07:46.663Z,325
2017-10-10T12:08:56.671Z,325
2017-10-10T12:10:06.767Z,295
2017-10-10T12:11:16.765Z,270
2017-10-10T12:12:27.100Z,280
2017-10-10T12:13:37.095Z,325
2017-10-10T12:14:47.100Z,270
2017-10-10T12:15:57.095Z,285
2017-10-10T12:17:07.092Z,305
2017-10-10T12:18:17.116Z,325
2017-10-10T12:19:27.444Z,330
2017-10-10T12:20:37.104Z,330
2017-10-10T12:21:47.446Z,335
2017-10-10T12:22:57.449Z,360
2017-10-10T12:24:07.446Z,490
2017-10-10T12:25:17.109Z,435
2017-10-10T12:26:27.494Z,425
2017-10-10T12:27:38.179Z,500
2017-10-10T12:28:48.513Z,1385
2017-10-10T12:29:58.187Z,1105
2017-10-10T12:31:07.847Z,1035
2017-10-10T12:32:17.177Z,730
2017-10-10T12:33:27.198Z,530
2017-10-10T12:34:37.205Z,700
2017-10-10T12:35:47.200Z,555
2017-10-10T12:36:57.531Z,500
2017-10-10T12:38:07.530Z,870
2017-10-10T12:39:17.875Z,1365
2017-10-10T12:40:28.222Z,1045
2017-10-10T12:41:38.217Z,1165
2017-10-10T12:42:48.215Z,1020
2017-10-10T12:43:58.553Z,425
2017-10-10T12:45:08.557Z,255
2017-10-10T12:46:18.891Z,225
2017-10-10T12:47:28.561Z,215
2017-10-10T12:48:38.903Z,210
2017-10-10T12:49:48.912Z,230
2017-10-10T12:50:59.308Z,255
2017-10-10T12:52:08.975Z,270
2017-10-10T12:53:19.310Z,280
2017-10-10T12:54:29.308Z,280
2017-10-10T12:55:38.986Z,295
2017-10-10T12:56:49.025Z,285
2017-10-10T12:57:59.050Z,280
2017-10-10T12:59:09.411Z,285
2017-10-10T13:00:19.749Z,290
2017-10-10T13:01:29.759Z,280
2017-10-10T13:02:39.758Z,260
2017-10-10T13:03:50.099Z,245
2017-10-10T13:05:00.445Z,235
2017-10-10T13:06:09.767Z,230
2017-10-10T13:07:20.104Z,220
2017-10-10T13:08:30.111Z,205
2017-10-10T13:09:40.135Z,190
2017-10-10T13:10:50.476Z,180
2017-10-10T13:12:00.139Z,175
2017-10-10T13:13:09.799Z,175
2017-10-10T13:14:19.466Z,175
2017-10-10T13:15:29.472Z,175
2017-10-10T13:16:39.819Z,175
2017-10-10T13:17:50.151Z,170
2017-10-10T13:19:00.496Z,165
2017-10-10T13:20:10.846Z,155
2017-10-10T13:21:20.844Z,145
2017-10-10T13:22:30.840Z,135
2017-10-10T13:23:40.501Z,125
2017-10-10T13:24:50.161Z,120
2017-10-10T13:26:00.492Z,120
2017-10-10T13:27:10.820Z,120
2017-10-10T13:28:20.486Z,120
2017-10-10T13:29:30.816Z,120
2017-10-10T13:30:41.148Z,125
2017-10-10T13:31:50.485Z,125
2017-10-10T13:33:00.821Z,130
2017-10-10T13:34:10.826Z,130
2017-10-10T13:35:21.159Z,130
2017-10-10T13:36:31.161Z,130
2017-10-10T13:37:41.487Z,130
2017-10-10T13:38:51.822Z,130
2017-10-10T13:40:01.481Z,130
2017-10-10T13:41:10.815Z,125
2017-10-10T13:42:21.146Z,130
2017-10-10T13:43:33.315Z,120
2017-10-10T13:44:43.646Z,120
2017-10-10T13:45:53.305Z,115
2017-10-10T13:47:03.306Z,110
2017-10-10T13:48:12.641Z,110
2017-10-10T13:49:22.643Z,105
2017-10-10T13:50:32.665Z,105
2017-10-10T13:51:42.665Z,105
2017-10-10T13:52:52.706Z,100
2017-10-10T13:54:02.366Z,95
2017-10-10T13:55:12.027Z,90
2017-10-10T13:56:22.358Z,85
2017-10-10T13:57:32.691Z,80
2017-10-10T13:58:42.351Z,75
2017-10-10T13:59:52.680Z,75
2017-10-10T14:01:03.014Z,75
2017-10-10T14:02:13.355Z,80
2017-10-10T14:03:23.685Z,75
2017-10-10T14:04:34.016Z,75
2017-10-10T14:05:44.013Z,75
2017-10-10T14:06:54.342Z,75
2017-10-10T14:08:04.344Z,75
2017-10-10T14:09:14.675Z,75
2017-10-10T14:10:24.002Z,80
2017-10-10T14:11:34.335Z,80
2017-10-10T14:12:43.999Z,85
2017-10-10T14:13:54.330Z,85
2017-10-10T14:15:04.332Z,85
2017-10-10T14:16:14.668Z,85
2017-10-10T14:17:24.330Z,85
2017-10-10T14:18:34.324Z,85
2017-10-10T14:19:44.318Z,90
2017-10-10T14:20:54.649Z,90
2017-10-10T14:22:04.658Z,90
2017-10-10T14:23:15.006Z,95
2017-10-10T14:24:25.352Z,95
2017-10-10T14:25:35.704Z,100
2017-10-10T14:26:45.702Z,105
2017-10-10T14:27:55.695Z,105
2017-10-10T14:29:05.695Z,105
2017-10-10T14:30:16.035Z,105
2017-10-10T14:31:25.698Z,105
2017-10-10T14:32:35.694Z,110
2017-10-10T14:33:46.020Z,110
2017-10-10T14:34:56.022Z,110
2017-10-10T14:37:15.672Z,115
2017-10-10T14:38:26.000Z,115
2017-10-10T14:39:36.345Z,115
2017-10-10T14:40:46.346Z,115
2017-10-10T14:41:56.696Z,115
2017-10-10T14:43:07.031Z,115
2017-10-10T14:44:17.041Z,120
2017-10-10T14:45:26.718Z,120
2017-10-10T14:46:36.385Z,120
2017-10-10T14:47:46.725Z,120
2017-10-10T14:48:57.088Z,120
2017-10-10T14:50:07.421Z,120
2017-10-10T14:51:17.752Z,115
2017-10-10T14:52:28.104Z,115
2017-10-10T14:53:38.433Z,110
2017-10-10T14:54:48.790Z,105
2017-10-10T14:55:59.124Z,100
2017-10-10T14:57:09.450Z,100
2017-10-10T14:58:19.776Z,95
2017-10-10T14:59:29.772Z,90
2017-10-10T15:00:40.118Z,85
2017-10-10T15:01:50.474Z,85
2017-10-10T15:03:00.144Z,80
2017-10-10T15:04:09.818Z,75
2017-10-10T15:05:20.178Z,70
2017-10-10T15:06:30.510Z,65
2017-10-10T15:07:40.844Z,65
2017-10-10T15:08:50.840Z,65
2017-10-10T15:10:01.170Z,60
2017-10-10T15:11:10.841Z,55
2017-10-10T15:12:21.174Z,55
2017-10-10T15:13:31.179Z,50
2017-10-10T15:14:41.173Z,45
2017-10-10T15:15:51.167Z,45
2017-10-10T15:17:01.490Z,40
2017-10-10T15:18:10.819Z,40
2017-10-10T15:19:20.808Z,35
2017-10-10T15:20:30.797Z,35
2017-10-10T15:21:40.804Z,35
2017-10-10T15:22:50.803Z,35
2017-10-10T15:24:01.140Z,35
2017-10-10T15:25:11.484Z,35
2017-10-10T15:26:21.482Z,35
2017-10-10T15:27:31.164Z,35
2017-10-10T15:28:41.163Z,35
2017-10-10T15:29:51.498Z,35
2017-10-10T15:31:01.495Z,35
2017-10-10T15:32:11.823Z,40
2017-10-10T15:33:21.831Z,40
2017-10-10T15:34:31.502Z,40
2017-10-10T15:35:41.828Z,40
2017-10-10T15:36:51.488Z,40
2017-10-10T15:38:01.813Z,40
2017-10-10T15:39:11.806Z,40
2017-10-10T15:40:21.464Z,40
2017-10-10T15:41:30.799Z,35
2017-10-10T15:42:40.458Z,35
2017-10-10T15:43:50.481Z,35
2017-10-10T15:45:00.807Z,35
2017-10-10T15:46:11.138Z,30
2017-10-10T15:47:21.129Z,30
2017-10-10T15:48:31.122Z,30
2017-10-10T15:49:41.113Z,30
2017-10-10T15:50:51.119Z,25
2017-10-10T15:52:01.111Z,25
2017-10-10T15:53:11.118Z,25
2017-10-10T15:54:21.441Z,25
2017-10-10T15:55:31.099Z,20
2017-10-10T15:56:41.093Z,20
2017-10-10T15:57:51.418Z,20
2017-10-10T15:59:01.758Z,15
2017-10-10T16:00:12.090Z,15
2017-10-10T16:01:22.086Z,10
2017-10-10T16:02:32.421Z,10
2017-10-10T16:03:42.745Z,10
2017-10-10T16:04:53.090Z,5
2017-10-10T16:06:03.086Z,5
2017-10-10T16:07:12.755Z,5
2017-10-10T16:08:22.763Z,5
2017-10-10T16:09:32.771Z,5
2017-10-10T16:10:42.773Z,0
2017-10-10T16:11:53.098Z,0
2017-10-10T16:13:03.432Z,0
2017-10-10T16:14:13.756Z,0
2017-10-10T16:15:23.758Z,0
2017-10-10T16:16:33.091Z,0
2017-10-10T16:17:43.419Z,0
2017-10-10T16:18:53.075Z,0
2017-10-10T16:20:03.073Z,0
2017-10-10T16:21:12.774Z,0
2017-10-10T16:22:22.770Z,0
2017-10-10T16:23:32.435Z,0
2017-10-10T16:24:42.760Z,0
2017-10-10T16:25:53.088Z,0
2017-10-10T16:27:03.437Z,0
2017-10-10T16:28:13.446Z,0
2017-10-10T16:29:23.447Z,0
2017-10-10T16:30:33.438Z,0
2017-10-10T16:31:43.762Z,0
2017-10-10T16:32:53.421Z,0
2017-10-10T16:34:03.410Z,0
2017-10-10T16:35:13.733Z,0
2017-10-10T16:36:23.723Z,0
2017-10-10T16:37:33.714Z,0
2017-10-10T16:38:43.711Z,0